createdAt,value
2022-09-23T00:00:06.260Z,2.33
2022-09-23T00:05:08.785Z,1.40
2022-09-23T00:10:10.971Z,1.80
2022-09-23T00:15:12.851Z,1.20
2022-09-23T00:20:14.689Z,2.20
2022-09-23T00:25:16.414Z,1.85
2022-09-23T00:30:18.328Z,1.52
2022-09-23T00:35:20.051Z,1.27
2022-09-23T00:40:21.768Z,2.83
2022-09-23T00:45:23.582Z,2.20
2022-09-23T00:50:39.407Z,1.70
2022-09-23T00:55:47.742Z,4.10
2022-09-23T01:00:49.466Z,1.88
2022-09-23T01:05:52.122Z,1.67
2022-09-23T01:11:02.900Z,1.73
2022-09-23T01:16:32.012Z,2.55
2022-09-23T01:21:58.938Z,1.67
2022-09-23T01:27:24.964Z,2.00
2022-09-23T01:32:47.335Z,3.90
2022-09-23T01:38:20.930Z,1.80
2022-09-23T01:43:56.596Z,2.08
2022-09-23T01:49:36.971Z,4.18
2022-09-23T01:55:08.082Z,2.40
2022-09-23T02:00:14.305Z,1.58
2022-09-23T02:05:27.367Z,1.80
2022-09-23T02:10:36.351Z,1.73
2022-09-23T02:15:45.788Z,3.78
2022-09-23T02:20:50.481Z,2.30
2022-09-23T02:26:05.624Z,2.28
2022-09-23T02:31:19.199Z,2.65
2022-09-23T02:36:30.566Z,1.48
2022-09-23T02:41:55.360Z,3.53
2022-09-23T02:46:57.029Z,3.27
2022-09-23T02:52:01.999Z,2.60
2022-09-23T02:57:06.510Z,2.57
2022-09-23T03:02:30.154Z,3.00
2022-09-23T03:07:37.981Z,2.53
2022-09-23T03:13:09.576Z,2.50
2022-09-23T03:18:15.566Z,3.05
2022-09-23T03:23:23.241Z,3.43
2022-09-23T03:28:25.619Z,3.45
2022-09-23T03:33:28.865Z,3.10
2022-09-23T03:38:36.867Z,2.22
2022-09-23T03:43:39.881Z,2.90
2022-09-23T03:48:41.563Z,10.35
2022-09-23T03:53:43.261Z,2.97
2022-09-23T03:58:45.000Z,3.25
2022-09-23T04:03:46.700Z,4.47
2022-09-23T04:08:48.376Z,2.60
2022-09-23T04:13:50.170Z,3.53
2022-09-23T04:18:52.272Z,3.70
2022-09-23T04:23:54.046Z,3.83
2022-09-23T04:28:55.781Z,3.40
2022-09-23T04:33:57.761Z,5.10
2022-09-23T04:38:59.497Z,3.53
2022-09-23T04:44:01.496Z,3.30
2022-09-23T04:49:03.270Z,5.68
2022-09-23T04:54:05.097Z,3.33
2022-09-23T04:59:07.374Z,3.37
2022-09-23T05:04:11.201Z,4.13
2022-09-23T05:09:16.568Z,2.65
2022-09-23T05:14:18.297Z,5.10
2022-09-23T05:19:20.007Z,4.57
2022-09-23T05:24:21.779Z,2.87
2022-09-23T05:29:23.470Z,3.17
2022-09-23T05:34:25.170Z,3.63
2022-09-23T05:39:26.827Z,4.33
2022-09-23T05:44:28.510Z,3.40
2022-09-23T05:49:48.643Z,3.63
2022-09-23T05:54:52.043Z,4.57
2022-09-23T05:59:53.747Z,3.17
2022-09-23T06:04:55.445Z,3.38
2022-09-23T06:09:57.299Z,3.80
2022-09-23T06:14:58.964Z,5.87
2022-09-23T06:20:00.886Z,2.88
2022-09-23T06:25:02.572Z,7.27
2022-09-23T06:30:05.446Z,5.23
2022-09-23T06:35:17.902Z,4.77
2022-09-23T06:40:23.935Z,5.53
2022-09-23T06:45:26.123Z,3.37
2022-09-23T06:50:27.806Z,2.92
2022-09-23T06:55:29.522Z,5.60
2022-09-23T07:00:31.222Z,6.10
2022-09-23T07:05:32.918Z,5.20
2022-09-23T07:10:34.603Z,4.97
2022-09-23T07:15:36.288Z,2.80
2022-09-23T07:20:37.978Z,4.80
2022-09-23T07:25:39.731Z,6.32
2022-09-23T07:30:52.682Z,4.88
2022-09-23T07:35:56.334Z,4.55
2022-09-23T07:41:02.983Z,3.28
2022-09-23T07:46:16.734Z,3.70
2022-09-23T07:51:24.407Z,4.07
2022-09-23T07:56:28.415Z,4.67
2022-09-23T08:01:34.142Z,6.20
2022-09-23T08:06:39.002Z,3.40
2022-09-23T08:11:41.233Z,2.10
2022-09-23T08:16:43.243Z,4.05
2022-09-23T08:21:45.899Z,3.25
2022-09-23T08:26:48.477Z,2.10
2022-09-23T08:31:50.550Z,1.70
2022-09-23T08:36:52.247Z,1.70
2022-09-23T08:41:58.246Z,1.93
2022-09-23T08:47:06.380Z,2.08
2022-09-23T08:52:18.883Z,1.70
2022-09-23T08:58:23.411Z,1.93
2022-09-23T09:03:26.509Z,1.60
2022-09-23T09:08:36.797Z,2.00
2022-09-23T09:13:53.256Z,3.40
2022-09-23T09:18:56.294Z,2.13
2022-09-23T09:23:59.358Z,1.23
2022-09-23T09:29:34.172Z,3.17
2022-09-23T09:34:47.282Z,1.60
2022-09-23T09:39:49.037Z,1.30
2022-09-23T09:45:01.740Z,1.37
2022-09-23T09:50:12.824Z,3.35
2022-09-23T09:55:14.372Z,1.73
2022-09-23T10:00:22.126Z,1.50
2022-09-23T10:05:43.489Z,1.08
2022-09-23T10:10:52.610Z,1.95
2022-09-23T10:15:55.375Z,1.20
2022-09-23T10:21:23.082Z,1.08
2022-09-23T10:26:34.489Z,1.05
2022-09-23T10:31:36.367Z,0.90
2022-09-23T10:36:42.387Z,2.00
2022-09-23T10:42:03.525Z,1.50
2022-09-23T10:47:37.323Z,1.50
2022-09-23T10:52:44.972Z,2.27
2022-09-23T10:58:13.376Z,2.47
2022-09-23T11:03:37.653Z,1.83
2022-09-23T11:08:48.176Z,2.33
2022-09-23T11:13:54.586Z,2.08
2022-09-23T11:19:15.587Z,1.67
2022-09-23T11:24:18.905Z,2.93
2022-09-23T11:29:34.473Z,2.00
2022-09-23T11:35:11.800Z,2.60
2022-09-23T11:40:26.094Z,2.42
2022-09-23T11:45:40.475Z,2.28
2022-09-23T11:50:46.594Z,2.20
2022-09-23T11:55:58.439Z,1.90
2022-09-23T12:01:37.326Z,2.73
2022-09-23T12:06:46.115Z,3.63
2022-09-23T12:12:04.464Z,2.15
2022-09-23T12:17:28.918Z,3.28
2022-09-23T12:22:38.653Z,3.10
2022-09-23T12:27:44.261Z,3.95
2022-09-23T12:32:46.327Z,3.60
2022-09-23T12:37:50.518Z,2.00
2022-09-23T12:42:54.353Z,2.78
2022-09-23T12:47:56.303Z,2.88
2022-09-23T12:53:32.880Z,3.80
2022-09-23T12:58:39.893Z,3.03
2022-09-23T13:03:57.262Z,2.72
2022-09-23T13:09:00.424Z,3.50
2022-09-23T13:14:05.283Z,2.90
2022-09-23T13:19:26.912Z,2.33
2022-09-23T13:24:42.581Z,2.85
2022-09-23T13:30:16.494Z,2.72
2022-09-23T13:35:42.143Z,2.55
2022-09-23T13:40:44.329Z,4.50
2022-09-23T13:45:46.123Z,3.73
2022-09-23T13:50:52.192Z,3.67
2022-09-23T13:56:03.136Z,3.30
2022-09-23T14:01:09.012Z,3.17
2022-09-23T14:06:13.082Z,4.90
2022-09-23T14:11:16.986Z,3.20
2022-09-23T14:16:18.871Z,3.40
2022-09-23T14:21:32.298Z,3.03
2022-09-23T14:26:34.068Z,3.73
2022-09-23T14:31:35.802Z,3.50
2022-09-23T14:36:37.551Z,2.97
2022-09-23T14:41:43.414Z,3.58
2022-09-23T14:46:58.126Z,3.33
2022-09-23T14:52:05.054Z,3.27
2022-09-23T14:57:28.241Z,3.28
2022-09-23T15:02:38.401Z,4.20
2022-09-23T15:07:40.311Z,3.53
2022-09-23T15:12:46.872Z,4.70
2022-09-23T15:17:48.709Z,3.42
2022-09-23T15:22:53.157Z,4.18
2022-09-23T15:28:02.448Z,4.57
2022-09-23T15:33:04.577Z,4.20
2022-09-23T15:38:06.258Z,3.15
2022-09-23T15:43:22.859Z,3.53
2022-09-23T15:48:29.418Z,3.53
2022-09-23T15:53:31.162Z,4.22
2022-09-23T15:58:33.109Z,3.13
2022-09-23T16:03:34.799Z,4.25
2022-09-23T16:08:36.498Z,2.92
2022-09-23T16:13:38.163Z,4.43
2022-09-23T16:18:40.344Z,4.13
2022-09-23T16:23:44.467Z,5.00
2022-09-23T16:28:47.448Z,5.37
2022-09-23T16:33:49.370Z,5.30
2022-09-23T16:38:51.156Z,5.63
2022-09-23T16:43:53.004Z,4.37
2022-09-23T16:48:55.516Z,5.60
2022-09-23T16:53:58.473Z,5.57
2022-09-23T16:59:00.981Z,3.80
2022-09-23T17:04:04.191Z,4.80
2022-09-23T17:09:07.378Z,5.60
2022-09-23T17:14:10.249Z,4.05
2022-09-23T17:19:13.503Z,9.43
2022-09-23T17:24:15.695Z,6.25
2022-09-23T17:29:17.843Z,5.43
2022-09-23T17:34:19.590Z,8.27
2022-09-23T17:39:21.238Z,6.17
2022-09-23T17:44:38.485Z,8.02
2022-09-23T17:49:41.620Z,7.93
2022-09-23T17:54:43.801Z,15.32
2022-09-23T17:59:46.177Z,12.88
2022-09-23T18:04:48.107Z,10.87
2022-09-23T18:09:49.935Z,12.90
2022-09-23T18:14:52.227Z,10.10
2022-09-23T18:19:53.967Z,9.20
2022-09-23T18:24:56.167Z,12.30
2022-09-23T18:29:58.351Z,7.25
2022-09-23T18:35:00.231Z,7.53
2022-09-23T18:40:03.285Z,13.70
2022-09-23T18:45:05.579Z,10.43
2022-09-23T18:50:11.389Z,8.60
2022-09-23T18:55:13.147Z,12.23
2022-09-23T19:00:15.948Z,23.10
2022-09-23T19:05:17.635Z,25.98
2022-09-23T19:10:19.292Z,17.92
2022-09-23T19:15:21.536Z,13.43
2022-09-23T19:20:23.235Z,7.97
2022-09-23T19:25:25.669Z,9.88
2022-09-23T19:30:28.374Z,9.55
2022-09-23T19:35:30.514Z,8.55
2022-09-23T19:40:34.421Z,6.07
2022-09-23T19:45:36.722Z,6.50
2022-09-23T19:50:41.777Z,5.50
2022-09-23T19:55:43.599Z,7.82
2022-09-23T20:00:47.158Z,6.55
2022-09-23T20:05:57.012Z,6.00
2022-09-23T20:11:00.233Z,9.48
2022-09-23T20:16:02.712Z,7.90
2022-09-23T20:21:07.562Z,8.52
2022-09-23T20:26:10.348Z,8.50
2022-09-23T20:31:12.965Z,8.03
2022-09-23T20:36:14.758Z,9.90
2022-09-23T20:41:17.669Z,12.60
2022-09-23T20:46:20.002Z,9.02
2022-09-23T20:51:22.302Z,8.20
2022-09-23T20:56:25.366Z,12.43
2022-09-23T21:01:27.656Z,9.67
2022-09-23T21:06:29.518Z,8.20
2022-09-23T21:11:31.685Z,10.80
2022-09-23T21:16:33.940Z,7.50
2022-09-23T21:21:36.570Z,7.33
2022-09-23T21:26:38.469Z,7.15
2022-09-23T21:31:40.595Z,9.90
2022-09-23T21:36:43.906Z,6.90
2022-09-23T21:41:45.688Z,7.25
2022-09-23T21:46:47.425Z,8.10
2022-09-23T21:51:49.385Z,9.45
2022-09-23T21:56:51.134Z,9.93
2022-09-23T22:01:54.309Z,7.88
2022-09-23T22:06:56.219Z,11.13
2022-09-23T22:11:57.868Z,7.95
2022-09-23T22:17:04.561Z,13.00
2022-09-23T22:22:08.579Z,9.00
2022-09-23T22:27:11.994Z,8.45
2022-09-23T22:32:13.697Z,9.10
2022-09-23T22:37:18.197Z,10.03
2022-09-23T22:42:20.332Z,6.90
2022-09-23T22:47:22.343Z,9.07
2022-09-23T22:52:24.076Z,9.00
2022-09-23T22:57:25.764Z,6.83
2022-09-23T23:02:27.416Z,6.95
2022-09-23T23:07:29.245Z,6.82
2022-09-23T23:12:30.919Z,9.82
2022-09-23T23:17:32.596Z,5.85
2022-09-23T23:22:34.311Z,8.85
2022-09-23T23:27:36.081Z,8.20
2022-09-23T23:32:37.787Z,7.68
2022-09-23T23:37:39.476Z,7.25
2022-09-23T23:42:41.151Z,8.47
2022-09-23T23:47:42.804Z,6.07
2022-09-23T23:52:44.464Z,7.22
2022-09-23T23:57:46.128Z,7.63
